TimeEDT,TemperatureF,Dew PointF,Humidity,Sea Level PressureIn,VisibilityMPH,Wind Direction,Wind SpeedMPH,Gust SpeedMPH,PrecipitationIn,Events,Conditions,WindDirDegrees,DateUTC
12:53 AM,73.0,69.1,87,29.99,10.0,Calm,Calm,-,N/A,,Clear,0,2013-07-27 04:53:00
1:53 AM,72.0,69.1,91,29.97,10.0,Calm,Calm,-,N/A,,Scattered Clouds,0,2013-07-27 05:53:00
2:53 AM,72.0,69.1,91,29.97,10.0,Calm,Calm,-,N/A,,Scattered Clouds,0,2013-07-27 06:53:00
3:53 AM,71.1,68.0,90,29.94,10.0,Calm,Calm,-,N/A,,Partly Cloudy,0,2013-07-27 07:53:00
4:53 AM,71.1,69.1,93,29.94,10.0,Calm,Calm,-,N/A,,Partly Cloudy,0,2013-07-27 08:53:00
5:53 AM,71.1,68.0,90,29.94,10.0,Calm,Calm,-,N/A,,Mostly Cloudy,0,2013-07-27 09:53:00
6:53 AM,70.0,66.9,90,29.96,10.0,Calm,Calm,-,N/A,,Clear,0,2013-07-27 10:53:00
7:53 AM,71.1,68.0,90,29.96,10.0,Calm,Calm,-,N/A,,Partly Cloudy,0,2013-07-27 11:53:00
8:53 AM,73.0,68.0,84,29.96,10.0,Variable,3.5,-,0.00,,Partly Cloudy,0,2013-07-27 12:53:00
9:53 AM,75.0,68.0,79,29.96,10.0,South,4.6,-,N/A,,Clear,180,2013-07-27 13:53:00
10:53 AM,75.0,68.0,79,29.96,10.0,Calm,Calm,-,N/A,,Overcast,0,2013-07-27 14:53:00
11:23 AM,73.4,69.8,88,30.01,2.5,West,6.9,-,0.00,Rain,Light Rain,280,2013-07-27 15:23:00
11:30 AM,73.4,71.6,94,30.01,1.0,Calm,Calm,-,0.07,Rain,Light Rain,0,2013-07-27 15:30:00
11:34 AM,73.4,69.8,88,30.01,2.5,Calm,Calm,-,0.08,Rain,Light Rain,0,2013-07-27 15:34:00
11:41 AM,73.4,69.8,88,30.01,10.0,Calm,Calm,-,0.08,,Mostly Cloudy,0,2013-07-27 15:41:00
11:53 AM,75.0,68.0,79,29.97,10.0,Calm,Calm,-,0.08,,Mostly Cloudy,0,2013-07-27 15:53:00
12:53 PM,75.0,69.1,82,29.95,10.0,West,5.8,-,0.00,,Scattered Clouds,280,2013-07-27 16:53:00
1:53 PM,78.1,64.9,64,29.93,10.0,Variable,3.5,-,N/A,,Scattered Clouds,0,2013-07-27 17:53:00
2:53 PM,80.1,66.0,62,29.92,10.0,South,3.5,-,N/A,,Scattered Clouds,190,2013-07-27 18:53:00
3:53 PM,82.0,66.0,58,29.88,10.0,Calm,Calm,-,N/A,,Scattered Clouds,0,2013-07-27 19:53:00
4:53 PM,80.1,66.9,64,29.89,10.0,WSW,3.5,-,N/A,,Mostly Cloudy,250,2013-07-27 20:53:00
5:53 PM,82.0,66.0,58,29.87,10.0,Variable,4.6,-,N/A,,Scattered Clouds,0,2013-07-27 21:53:00
6:20 PM,80.6,68.0,65,29.92,10.0,South,4.6,-,N/A,,Mostly Cloudy,170,2013-07-27 22:20:00
6:28 PM,80.6,66.2,61,29.91,10.0,South,4.6,-,N/A,,Scattered Clouds,180,2013-07-27 22:28:00
6:53 PM,81.0,66.9,62,29.86,10.0,SSW,4.6,-,N/A,,Partly Cloudy,210,2013-07-27 22:53:00
7:53 PM,79.0,66.0,64,29.88,10.0,Calm,Calm,-,N/A,,Clear,0,2013-07-27 23:53:00
8:53 PM,78.1,66.9,68,29.89,10.0,Calm,Calm,-,N/A,,Mostly Cloudy,0,2013-07-28 00:53:00
9:53 PM,75.0,69.1,82,29.90,10.0,Calm,Calm,-,N/A,,Clear,0,2013-07-28 01:53:00
10:53 PM,75.9,69.1,79,29.91,10.0,Calm,Calm,-,N/A,,Mostly Cloudy,0,2013-07-28 02:53:00
11:53 PM,73.0,69.1,87,29.92,10.0,Calm,Calm,-,N/A,,Mostly Cloudy,0,2013-07-28 03:53:00